createdAt,value
2023-02-03T00:00:45.540Z,32.10
2023-02-03T00:03:12.838Z,31.30
2023-02-03T00:05:41.357Z,30.83
2023-02-03T00:08:09.258Z,31.61
2023-02-03T00:10:37.383Z,32.56
2023-02-03T00:13:06.509Z,30.67
2023-02-03T00:15:33.543Z,30.12
2023-02-03T00:18:00.595Z,31.00
2023-02-03T00:20:28.129Z,29.50
2023-02-03T00:22:55.269Z,30.23
2023-02-03T00:25:22.355Z,30.98
2023-02-03T00:27:49.459Z,30.45
2023-02-03T00:30:18.914Z,31.54
2023-02-03T00:32:45.869Z,30.35
2023-02-03T00:35:15.377Z,31.17
2023-02-03T00:37:42.312Z,29.86
2023-02-03T00:40:10.295Z,29.99
2023-02-03T00:42:40.199Z,31.64
2023-02-03T00:45:07.745Z,31.85
2023-02-03T00:47:37.335Z,32.49
2023-02-03T00:50:06.022Z,32.60
2023-02-03T00:52:32.983Z,34.69
2023-02-03T00:54:59.987Z,33.01
2023-02-03T00:57:27.252Z,32.40
2023-02-03T00:59:55.030Z,31.22
2023-02-03T01:02:22.162Z,31.51
2023-02-03T01:04:49.363Z,31.09
2023-02-03T01:07:16.714Z,32.68
2023-02-03T01:09:43.707Z,31.36
2023-02-03T01:12:10.867Z,33.22
2023-02-03T01:14:37.817Z,30.92
2023-02-03T01:17:05.067Z,30.95
2023-02-03T01:19:32.106Z,30.70
2023-02-03T01:21:59.092Z,29.80
2023-02-03T01:24:26.171Z,29.85
2023-02-03T01:26:53.213Z,31.89
2023-02-03T01:29:20.134Z,32.75
2023-02-03T01:31:47.200Z,32.57
2023-02-03T01:34:16.528Z,32.29
2023-02-03T01:36:46.843Z,33.27
2023-02-03T01:39:14.403Z,31.23
2023-02-03T01:41:41.832Z,32.13
2023-02-03T01:44:33.682Z,30.70
2023-02-03T01:47:00.775Z,31.45
2023-02-03T01:49:32.132Z,30.80
2023-02-03T01:51:59.485Z,30.67
2023-02-03T01:54:35.073Z,30.70
2023-02-03T01:57:10.415Z,31.12
2023-02-03T01:59:37.458Z,30.94
2023-02-03T02:02:04.873Z,29.17
2023-02-03T02:04:43.207Z,29.56
2023-02-03T02:07:10.274Z,29.64
2023-02-03T02:09:37.472Z,30.05
2023-02-03T02:12:04.523Z,31.31
2023-02-03T02:14:34.123Z,34.54
2023-02-03T02:17:20.031Z,33.95
2023-02-03T02:20:01.668Z,31.00
2023-02-03T02:22:47.179Z,32.39
2023-02-03T02:25:38.973Z,32.00
2023-02-03T02:28:11.840Z,31.83
2023-02-03T02:31:03.796Z,31.28
2023-02-03T02:33:43.916Z,31.14
2023-02-03T02:36:48.047Z,33.11
2023-02-03T02:39:30.173Z,32.20
2023-02-03T02:42:01.846Z,32.02
2023-02-03T02:44:44.371Z,33.02
2023-02-03T02:47:19.111Z,33.42
2023-02-03T02:50:12.178Z,34.75
2023-02-03T02:52:41.687Z,33.61
2023-02-03T02:55:17.202Z,34.72
2023-02-03T02:57:47.894Z,34.65
2023-02-03T03:00:15.942Z,33.90
2023-02-03T03:02:42.907Z,32.62
2023-02-03T03:05:11.866Z,33.35
2023-02-03T03:07:45.638Z,32.45
2023-02-03T03:10:16.030Z,31.34
2023-02-03T03:12:48.441Z,31.55
2023-02-03T03:15:24.764Z,31.54
2023-02-03T03:18:06.021Z,34.70
2023-02-03T03:20:33.819Z,34.44
2023-02-03T03:23:02.419Z,35.18
2023-02-03T03:25:35.535Z,32.37
2023-02-03T03:28:06.601Z,31.50
2023-02-03T03:30:36.322Z,31.94
2023-02-03T03:33:04.797Z,33.96
2023-02-03T03:35:53.240Z,34.25
2023-02-03T03:38:35.449Z,31.59
2023-02-03T03:41:22.753Z,33.81
2023-02-03T03:43:50.788Z,31.67
2023-02-03T03:46:22.134Z,31.91
2023-02-03T03:48:57.266Z,31.15
2023-02-03T03:51:32.512Z,31.61
2023-02-03T03:54:04.547Z,33.17
2023-02-03T03:56:44.885Z,31.93
2023-02-03T03:59:14.173Z,31.58
2023-02-03T04:01:42.300Z,30.80
2023-02-03T04:04:11.608Z,32.01
2023-02-03T04:06:39.854Z,31.93
2023-02-03T04:09:07.409Z,31.29
2023-02-03T04:11:52.986Z,32.83
2023-02-03T04:14:22.178Z,31.48
2023-02-03T04:16:49.296Z,30.42
2023-02-03T04:19:16.292Z,31.91
2023-02-03T04:21:43.296Z,31.13
2023-02-03T04:24:10.423Z,32.43
2023-02-03T04:26:39.930Z,32.67
2023-02-03T04:29:07.161Z,31.31
2023-02-03T04:31:34.235Z,31.02
2023-02-03T04:34:01.272Z,31.42
2023-02-03T04:36:28.290Z,32.24
2023-02-03T04:38:55.200Z,30.69
2023-02-03T04:41:22.159Z,30.15
2023-02-03T04:43:49.437Z,31.38
2023-02-03T04:46:16.627Z,33.57
2023-02-03T04:48:43.624Z,34.14
2023-02-03T04:51:10.630Z,31.69
2023-02-03T04:53:37.727Z,30.51
2023-02-03T04:56:07.685Z,30.24
2023-02-03T04:58:34.671Z,32.34
2023-02-03T05:01:10.110Z,32.32
2023-02-03T05:03:39.873Z,31.84
2023-02-03T05:06:06.970Z,34.38
2023-02-03T05:08:34.089Z,32.80
2023-02-03T05:11:02.373Z,33.84
2023-02-03T05:13:30.069Z,32.94
2023-02-03T05:15:57.097Z,34.37
2023-02-03T05:18:25.421Z,31.98
2023-02-03T05:20:52.421Z,34.93
2023-02-03T05:23:19.385Z,35.35
2023-02-03T05:25:46.447Z,35.97
2023-02-03T05:28:13.497Z,35.76
2023-02-03T05:30:40.623Z,35.99
2023-02-03T05:33:07.682Z,32.91
2023-02-03T05:35:34.729Z,33.88
2023-02-03T05:38:06.551Z,35.72
2023-02-03T05:41:05.608Z,36.84
2023-02-03T05:43:32.719Z,34.44
2023-02-03T05:46:04.824Z,35.61
2023-02-03T05:48:32.353Z,34.91
2023-02-03T05:51:01.911Z,34.94
2023-02-03T05:53:31.057Z,33.83
2023-02-03T05:55:58.047Z,34.81
2023-02-03T05:58:25.091Z,36.37
2023-02-03T06:00:52.266Z,36.42
2023-02-03T06:03:20.294Z,38.04
2023-02-03T06:05:47.338Z,35.09
2023-02-03T06:08:14.535Z,35.79
2023-02-03T06:10:41.546Z,35.89
2023-02-03T06:13:16.439Z,38.72
2023-02-03T06:15:44.343Z,39.51
2023-02-03T06:18:11.491Z,38.17
2023-02-03T06:20:38.562Z,38.49
2023-02-03T06:23:05.698Z,36.47
2023-02-03T06:25:33.281Z,38.30
2023-02-03T06:28:00.473Z,37.74
2023-02-03T06:30:28.017Z,38.51
2023-02-03T06:32:55.397Z,35.62
2023-02-03T06:35:22.562Z,38.04
2023-02-03T06:37:49.795Z,41.02
2023-02-03T06:40:17.051Z,41.27
2023-02-03T06:42:48.293Z,37.99
2023-02-03T06:45:15.775Z,41.11
2023-02-03T06:47:44.260Z,39.31
2023-02-03T06:50:14.136Z,40.78
2023-02-03T06:52:43.316Z,38.07
2023-02-03T06:55:12.616Z,35.42
2023-02-03T06:57:47.034Z,37.84
2023-02-03T07:00:18.986Z,38.76
2023-02-03T07:02:54.260Z,37.34
2023-02-03T07:05:22.248Z,37.58
2023-02-03T07:07:49.612Z,36.56
2023-02-03T07:10:16.701Z,36.15
2023-02-03T07:12:44.251Z,37.49
2023-02-03T07:15:12.439Z,39.52
2023-02-03T07:17:39.591Z,40.39
2023-02-03T07:20:07.178Z,37.01
2023-02-03T07:22:34.375Z,38.60
2023-02-03T07:25:01.487Z,37.46
2023-02-03T07:27:30.731Z,38.99
2023-02-03T07:29:57.654Z,37.89
2023-02-03T07:32:24.691Z,36.41
2023-02-03T07:34:51.675Z,39.74
2023-02-03T07:37:18.696Z,38.66
2023-02-03T07:39:46.224Z,37.63
2023-02-03T07:42:13.308Z,39.43
2023-02-03T07:44:40.467Z,39.35
2023-02-03T07:47:07.518Z,37.84
2023-02-03T07:49:34.541Z,39.16
2023-02-03T07:52:04.091Z,37.89
2023-02-03T07:54:33.672Z,43.65
2023-02-03T07:57:00.749Z,41.32
2023-02-03T07:59:27.822Z,41.61
2023-02-03T08:01:56.424Z,42.46
2023-02-03T08:04:24.488Z,39.12
2023-02-03T08:06:51.539Z,41.92
2023-02-03T08:09:18.623Z,41.44
2023-02-03T08:11:45.707Z,42.39
2023-02-03T08:14:44.160Z,45.32
2023-02-03T08:17:13.461Z,41.33
2023-02-03T08:19:43.371Z,44.69
2023-02-03T08:22:16.070Z,41.78
2023-02-03T08:24:45.960Z,41.26
2023-02-03T08:27:14.299Z,42.47
2023-02-03T08:29:41.481Z,40.59
2023-02-03T08:32:16.355Z,43.22
2023-02-03T08:34:43.796Z,43.20
2023-02-03T08:37:12.108Z,42.56
2023-02-03T08:39:39.646Z,42.38
2023-02-03T08:42:07.293Z,43.86
2023-02-03T08:44:34.671Z,43.81
2023-02-03T08:47:02.357Z,45.85
2023-02-03T08:49:30.281Z,53.26
2023-02-03T08:51:58.318Z,47.20
2023-02-03T08:54:26.244Z,44.25
2023-02-03T08:56:53.309Z,41.94
2023-02-03T08:59:20.372Z,43.75
2023-02-03T09:01:48.648Z,45.89
2023-02-03T09:04:24.641Z,43.57
2023-02-03T09:06:54.556Z,44.36
2023-02-03T09:09:21.965Z,46.35
2023-02-03T09:11:49.192Z,46.12
2023-02-03T09:14:16.187Z,44.08
2023-02-03T09:16:45.370Z,41.11
2023-02-03T09:19:13.560Z,44.75
2023-02-03T09:21:45.302Z,45.33
2023-02-03T09:24:18.691Z,47.20
2023-02-03T09:26:45.744Z,45.27
2023-02-03T09:29:15.072Z,42.82
2023-02-03T09:31:42.062Z,47.38
2023-02-03T09:34:09.261Z,46.15
2023-02-03T09:36:37.614Z,46.43
2023-02-03T09:39:04.687Z,46.56
2023-02-03T09:41:52.787Z,49.77
2023-02-03T09:44:35.300Z,45.45
2023-02-03T09:47:09.530Z,42.63
2023-02-03T09:49:50.621Z,45.04
2023-02-03T09:52:25.842Z,47.26
2023-02-03T09:55:05.019Z,47.07
2023-02-03T09:57:37.078Z,45.82
2023-02-03T10:00:27.441Z,51.62
2023-02-03T10:03:12.878Z,47.16
2023-02-03T10:05:54.918Z,47.85
2023-02-03T10:08:28.792Z,42.64
2023-02-03T10:11:28.248Z,43.19
2023-02-03T10:14:13.823Z,40.81
2023-02-03T10:17:11.707Z,42.42
2023-02-03T10:20:00.156Z,43.43
2023-02-03T10:22:29.165Z,45.53
2023-02-03T10:25:30.901Z,45.39
2023-02-03T10:28:01.546Z,45.15
2023-02-03T10:30:34.911Z,44.77
2023-02-03T10:33:14.618Z,45.41
2023-02-03T10:35:56.440Z,43.96
2023-02-03T10:38:39.418Z,43.01
2023-02-03T10:41:06.574Z,44.08
2023-02-03T10:43:51.474Z,40.78
2023-02-03T10:46:29.798Z,40.04
2023-02-03T10:48:57.211Z,43.41
2023-02-03T10:51:26.575Z,42.63
2023-02-03T10:53:53.758Z,38.24
2023-02-03T10:56:36.865Z,40.17
2023-02-03T10:59:04.449Z,46.89
2023-02-03T11:01:31.319Z,39.76
2023-02-03T11:04:01.944Z,39.05
2023-02-03T11:06:29.042Z,40.29
2023-02-03T11:08:56.327Z,39.07
2023-02-03T11:11:34.213Z,41.10
2023-02-03T11:14:13.145Z,40.54
2023-02-03T11:16:41.173Z,39.07
2023-02-03T11:19:20.595Z,38.68
2023-02-03T11:21:50.502Z,42.48
2023-02-03T11:24:25.964Z,43.59
2023-02-03T11:26:55.890Z,41.15
2023-02-03T11:29:31.460Z,49.27
2023-02-03T11:32:00.547Z,42.96
2023-02-03T11:34:33.191Z,45.86
2023-02-03T11:37:30.017Z,44.03
2023-02-03T11:40:11.088Z,42.79
2023-02-03T11:42:44.031Z,46.37
2023-02-03T11:45:15.776Z,46.57
2023-02-03T11:47:56.231Z,44.74
2023-02-03T11:50:29.398Z,39.34
2023-02-03T11:52:59.853Z,44.44
2023-02-03T11:55:46.006Z,42.99
2023-02-03T11:58:19.095Z,46.27
2023-02-03T12:01:08.101Z,41.63
2023-02-03T12:03:34.947Z,41.78
2023-02-03T12:06:23.107Z,45.07
2023-02-03T12:09:46.777Z,42.66
2023-02-03T12:12:31.182Z,42.42
2023-02-03T12:15:00.960Z,45.12
2023-02-03T12:17:33.987Z,40.38
2023-02-03T12:20:07.140Z,41.34
2023-02-03T12:22:48.532Z,40.56
2023-02-03T12:26:03.328Z,43.09
2023-02-03T12:28:59.143Z,38.95
2023-02-03T12:31:35.520Z,40.38
2023-02-03T12:34:21.126Z,37.08
2023-02-03T12:37:07.604Z,41.88
2023-02-03T12:39:48.316Z,42.83
2023-02-03T12:42:23.580Z,44.38
2023-02-03T12:45:08.888Z,39.01
2023-02-03T12:47:41.869Z,42.48
2023-02-03T12:50:18.557Z,40.77
2023-02-03T12:53:00.757Z,38.82
2023-02-03T12:55:39.633Z,38.22
2023-02-03T12:58:10.399Z,37.84
2023-02-03T13:00:48.332Z,34.36
2023-02-03T13:03:18.963Z,34.57
2023-02-03T13:06:19.931Z,39.29
2023-02-03T13:09:12.987Z,40.70
2023-02-03T13:12:12.585Z,39.56
2023-02-03T13:14:46.609Z,35.29
2023-02-03T13:17:30.987Z,33.61
2023-02-03T13:20:13.998Z,34.15
2023-02-03T13:22:41.030Z,33.31
2023-02-03T13:25:18.969Z,36.19
2023-02-03T13:28:14.658Z,35.88
2023-02-03T13:31:19.568Z,35.16
2023-02-03T13:34:17.029Z,34.31
2023-02-03T13:37:05.535Z,36.15
2023-02-03T13:40:01.815Z,35.27
2023-02-03T13:42:31.889Z,33.23
2023-02-03T13:45:17.859Z,32.04
2023-02-03T13:47:50.794Z,32.54
2023-02-03T13:50:26.450Z,32.38
2023-02-03T13:53:15.099Z,32.02
2023-02-03T13:56:02.585Z,32.24
2023-02-03T13:58:32.326Z,33.43
2023-02-03T14:01:19.453Z,33.12
2023-02-03T14:03:46.977Z,33.23
2023-02-03T14:06:49.736Z,31.55
2023-02-03T14:09:31.763Z,31.99
2023-02-03T14:12:22.159Z,32.36
2023-02-03T14:14:52.012Z,33.01
2023-02-03T14:17:34.205Z,32.15
2023-02-03T14:20:21.571Z,32.52
2023-02-03T14:22:48.554Z,33.24
2023-02-03T14:25:18.239Z,32.17
2023-02-03T14:27:45.421Z,33.84
2023-02-03T14:30:14.724Z,33.72
2023-02-03T14:32:48.747Z,32.44
2023-02-03T14:35:20.523Z,33.72
2023-02-03T14:37:55.989Z,33.28
2023-02-03T14:40:48.141Z,32.64
2023-02-03T14:43:26.986Z,33.03
2023-02-03T14:46:00.675Z,32.31
2023-02-03T14:48:36.624Z,32.82
2023-02-03T14:51:09.329Z,31.75
2023-02-03T14:54:14.075Z,33.56
2023-02-03T14:57:18.901Z,33.75
2023-02-03T14:59:54.791Z,34.54
2023-02-03T15:02:27.264Z,34.82
2023-02-03T15:05:17.201Z,35.14
2023-02-03T15:07:49.736Z,36.78
2023-02-03T15:10:25.471Z,35.71
2023-02-03T15:12:58.274Z,36.18
2023-02-03T15:15:30.010Z,37.39
2023-02-03T15:17:59.672Z,36.43
2023-02-03T15:20:44.175Z,36.07
2023-02-03T15:23:23.182Z,36.64
2023-02-03T15:26:01.810Z,35.33
2023-02-03T15:28:30.062Z,43.96
2023-02-03T15:31:16.737Z,31.91
2023-02-03T15:33:44.726Z,33.09
2023-02-03T15:36:24.288Z,100.00
2023-02-03T15:39:33.882Z,100.00
2023-02-03T15:42:01.255Z,100.00
2023-02-03T15:44:40.050Z,100.00
2023-02-03T15:47:16.645Z,100.00
2023-02-03T15:49:44.055Z,100.00
2023-02-03T15:52:17.103Z,100.00
2023-02-03T15:54:53.488Z,100.00
2023-02-03T15:57:28.237Z,100.00
2023-02-03T16:00:08.513Z,30.31
2023-02-03T16:02:42.997Z,33.33
2023-02-03T16:05:27.271Z,33.46
2023-02-03T16:07:54.395Z,100.00
2023-02-03T16:10:31.247Z,100.00
2023-02-03T16:14:33.741Z,33.55
2023-02-03T16:17:06.007Z,32.82
2023-02-03T16:19:38.494Z,34.11
2023-02-03T16:22:25.532Z,33.11
2023-02-03T16:24:52.566Z,34.04
2023-02-03T16:27:20.457Z,34.82
2023-02-03T16:30:06.099Z,32.07
2023-02-03T16:32:51.734Z,33.47
2023-02-03T16:35:37.401Z,34.22
2023-02-03T16:38:36.803Z,33.28
2023-02-03T16:41:22.899Z,30.96
2023-02-03T16:44:08.394Z,29.55
2023-02-03T16:46:54.026Z,28.26
2023-02-03T16:49:39.660Z,28.64
2023-02-03T16:52:08.604Z,32.06
2023-02-03T16:54:35.552Z,31.47
2023-02-03T16:57:02.502Z,30.62
2023-02-03T16:59:29.450Z,31.02
2023-02-03T17:01:56.485Z,31.23
2023-02-03T17:04:23.495Z,30.45
2023-02-03T17:06:51.386Z,32.03
2023-02-03T17:09:23.548Z,33.58
2023-02-03T17:11:51.130Z,32.55
2023-02-03T17:14:18.105Z,32.09
2023-02-03T17:16:45.212Z,33.60
2023-02-03T17:19:12.890Z,32.19
2023-02-03T17:21:39.877Z,32.53
2023-02-03T17:24:07.766Z,32.92
2023-02-03T17:26:35.131Z,32.79
2023-02-03T17:29:03.569Z,33.77
2023-02-03T17:31:31.638Z,35.33
2023-02-03T17:33:59.245Z,34.50
2023-02-03T17:36:26.607Z,34.11
2023-02-03T17:55:25.064Z,100.00
2023-02-03T17:57:52.279Z,100.00
2023-02-03T18:00:19.654Z,100.00
2023-02-03T18:02:51.205Z,100.00
2023-02-03T18:05:18.811Z,100.00
2023-02-03T18:07:45.899Z,100.00
2023-02-03T18:10:13.068Z,100.00
2023-02-03T18:12:40.020Z,100.00
2023-02-03T18:15:07.330Z,100.00
2023-02-03T18:17:36.172Z,100.00
2023-02-03T18:20:04.063Z,100.00
2023-02-03T18:22:31.097Z,100.00
2023-02-03T18:24:58.369Z,100.00
2023-02-03T18:27:25.398Z,100.00
2023-02-03T18:29:54.731Z,100.00
2023-02-03T18:32:21.877Z,100.00
2023-02-03T18:34:48.836Z,100.00
2023-02-03T18:37:15.849Z,100.00
2023-02-03T18:39:42.864Z,100.00
2023-02-03T18:42:10.155Z,100.00
2023-02-03T18:44:37.140Z,100.00
2023-02-03T18:47:07.718Z,100.00
2023-02-03T18:49:35.882Z,100.00
2023-02-03T18:52:03.950Z,100.00
2023-02-03T18:54:31.045Z,100.00
2023-02-03T18:57:00.448Z,100.00
2023-02-03T18:59:27.538Z,100.00
2023-02-03T19:01:54.620Z,100.00
2023-02-03T19:04:21.611Z,100.00
2023-02-03T19:06:52.659Z,100.00
2023-02-03T19:09:22.221Z,100.00
2023-02-03T19:11:49.529Z,100.00
2023-02-03T19:14:16.792Z,100.00
2023-02-03T19:16:44.092Z,100.00
2023-02-03T19:19:13.361Z,100.00
2023-02-03T19:21:40.326Z,100.00
2023-02-03T19:24:07.545Z,100.00
2023-02-03T19:26:35.103Z,100.00
2023-02-03T19:29:02.132Z,100.00
2023-02-03T19:31:31.569Z,100.00
2023-02-03T19:33:59.915Z,100.00
2023-02-03T19:36:30.969Z,100.00
2023-02-03T19:38:58.128Z,100.00
2023-02-03T19:41:27.695Z,100.00
2023-02-03T19:43:54.721Z,100.00
2023-02-03T19:46:22.255Z,100.00
2023-02-03T19:48:50.532Z,100.00
2023-02-03T19:51:17.844Z,100.00
2023-02-03T19:53:44.856Z,100.00
2023-02-03T19:56:13.852Z,100.00
2023-02-03T19:58:41.130Z,100.00
2023-02-03T20:01:08.832Z,100.00
2023-02-03T20:03:35.804Z,100.00
2023-02-03T20:06:03.905Z,100.00
2023-02-03T20:08:30.954Z,100.00
2023-02-03T20:10:58.081Z,100.00
2023-02-03T20:13:25.198Z,100.00
2023-02-03T20:15:52.202Z,100.00
2023-02-03T20:18:19.554Z,100.00
2023-02-03T20:20:53.958Z,100.00
2023-02-03T20:23:21.743Z,100.00
2023-02-03T20:25:50.416Z,100.00
2023-02-03T20:28:17.857Z,100.00
2023-02-03T20:30:45.602Z,100.00
2023-02-03T20:33:12.869Z,100.00
2023-02-03T20:35:39.885Z,100.00
2023-02-03T20:38:07.049Z,100.00
2023-02-03T20:40:36.433Z,100.00
2023-02-03T20:43:13.226Z,100.00
2023-02-03T20:45:40.631Z,100.00
2023-02-03T20:48:14.011Z,100.00
2023-02-03T20:50:47.153Z,100.00
2023-02-03T20:53:20.253Z,100.00
